Time;durP1;ratioP1;P1;durP2;ratioP2;P2;SDS_P1;SDS_P2;PMS_P1;PMS_P2;Temp;Humidity;BMP_temperature;BMP_pressure;BME280_temperature;BME280_humidity;BME280_pressure;Samples;Min_cycle;Max_cycle;Signal;HPM_P1;HPM_P2
2022/08/04 00:00:43;;;;;;;;;;;;;;;31.27;24.42;99234.78;4391763;32;34392;-96
2022/08/04 00:03:21;;;;;;;;;;;;;;;31.15;24.57;99230.31;4378155;32;33690;-96
2022/08/04 00:05:51;;;;;;;;;;;;;;;31.13;24.71;99224.19;4377705;32;33940;-95
2022/08/04 00:08:48;;;;;;;;;;;;;;;31.19;24.92;99239.84;4377535;32;33899;-95
2022/08/04 00:11:36;;;;;;;;;;;;;;;31.14;25.33;99239.28;4380164;32;35068;-96
2022/08/04 00:14:05;;;;;;;;;;;;;;;31.11;25.32;99234.16;4376924;32;32983;-96
2022/08/04 00:16:36;;;;;;;;;;;;;;;30.99;25.33;99230.53;4391647;32;34142;-94
2022/08/04 00:19:25;;;;;;;;;;;;;;;30.97;25.15;99230.63;4378173;32;34259;-93
2022/08/04 00:21:57;;;;;;;;;;;;;;;30.92;25.15;99229.25;4391460;32;34842;-92
2022/08/04 00:24:24;;;;;;;;;;;;;;;30.36;25.57;99232.16;4392173;32;33617;-96
2022/08/04 00:26:52;;;;;;;;;;;;;;;30.36;25.70;99231.31;4378831;32;34949;-95
2022/08/04 00:29:20;;;;;;;;;;;;;;;29.27;26.95;99235.69;4392340;32;35059;-96
2022/08/04 00:32:08;;;;;;;;;;;;;;;29.94;26.44;99226.03;4391867;32;33999;-96
2022/08/04 00:34:35;;;;;;;;;;;;;;;30.19;26.24;99230.63;4392492;32;33053;-96
2022/08/04 00:37:04;;;;;;;;;;;;;;;29.92;26.98;99229.75;4378025;32;33834;-95
2022/08/04 00:39:33;;;;;;;;;;;;;;;30.44;26.39;99224.47;4378266;32;33689;-95
2022/08/04 00:42:00;;;;;;;;;;;;;;;30.49;26.26;99233.03;4391639;32;34452;-96
2022/08/04 00:45:06;;;;;;;;;;;;;;;30.25;26.91;99235.56;4391915;32;32811;-95
2022/08/04 00:48:03;;;;;;;;;;;;;;;30.63;26.67;99239.25;4391710;32;33760;-96
2022/08/04 00:50:40;;;;;;;;;;;;;;;30.08;27.69;99242.94;4392002;32;34009;-96
2022/08/04 00:53:12;;;;;;;;;;;;;;;30.42;27.44;99241.56;4391906;32;35181;-95
2022/08/04 00:55:46;;;;;;;;;;;;;;;30.48;27.43;99247.37;4378472;32;33487;-96
2022/08/04 00:58:20;;;;;;;;;;;;;;;30.26;27.87;99249.78;4391970;32;33938;-96
2022/08/04 01:00:58;;;;;;;;;;;;;;;29.94;28.52;99252.75;4391824;32;35322;-96
2022/08/04 01:03:41;;;;;;;;;;;;;;;30.24;28.58;99247.22;4379130;32;34253;-95
2022/08/04 01:06:10;;;;;;;;;;;;;;;30.01;28.90;99247.88;4379304;32;33197;-96
2022/08/04 01:09:01;;;;;;;;;;;;;;;30.37;28.40;99254.41;4380978;32;34894;-95
2022/08/04 01:11:48;;;;;;;;;;;;;;;29.36;30.46;99251.12;4392543;32;34115;-96
2022/08/04 01:14:46;;;;;;;;;;;;;;;29.09;30.81;99249.25;4391559;32;34080;-95
2022/08/04 01:17:13;;;;;;;;;;;;;;;29.45;30.55;99250.53;4378138;32;33188;-96
2022/08/04 01:20:00;;;;;;;;;;;;;;;29.97;29.65;99249.03;4393360;32;33633;-96
2022/08/04 01:22:36;;;;;;;;;;;;;;;29.53;30.45;99247.37;4392454;32;34223;-94
2022/08/04 01:25:26;;;;;;;;;;;;;;;29.32;30.85;99254.94;4390462;32;34387;-95
2022/08/04 01:28:16;;;;;;;;;;;;;;;29.26;31.32;99250.00;4365971;32;34359;-96
2022/08/04 01:30:44;;;;;;;;;;;;;;;28.49;32.45;99241.31;4391581;32;34337;-96
2022/08/04 01:33:12;;;;;;;;;;;;;;;28.95;31.98;99251.88;4378504;32;33849;-96
2022/08/04 01:36:00;;;;;;;;;;;;;;;29.69;30.68;99249.94;4393404;32;34040;-95
2022/08/04 01:38:48;;;;;;;;;;;;;;;29.52;30.97;99251.03;4378457;32;32927;-96
2022/08/04 01:41:16;;;;;;;;;;;;;;;29.64;30.75;99249.41;4391912;32;34598;-96
2022/08/04 01:43:58;;;;;;;;;;;;;;;30.08;30.33;99253.63;4380046;32;34036;-96
2022/08/04 01:46:25;;;;;;;;;;;;;;;29.49;31.11;99252.06;4378335;32;34746;-95
2022/08/04 01:48:53;;;;;;;;;;;;;;;29.99;30.21;99247.94;4377738;32;33783;-96
2022/08/04 01:51:20;;;;;;;;;;;;;;;30.04;30.35;99248.53;4378591;32;34223;-96
2022/08/04 01:54:07;;;;;;;;;;;;;;;30.23;29.97;99249.97;4368915;32;32863;-95
2022/08/04 01:56:55;;;;;;;;;;;;;;;29.60;30.89;99255.91;4380872;32;34188;-95
2022/08/04 01:59:22;;;;;;;;;;;;;;;29.14;31.75;99251.63;4377389;32;34038;-95
2022/08/04 02:01:50;;;;;;;;;;;;;;;28.78;32.31;99249.38;4378046;32;33973;-95
2022/08/04 02:04:37;;;;;;;;;;;;;;;29.04;32.15;99240.66;4390923;32;34323;-95
2022/08/04 02:07:07;;;;;;;;;;;;;;;29.37;31.37;99247.50;4391709;32;33907;-96
2022/08/04 02:09:38;;;;;;;;;;;;;;;29.82;30.71;99242.88;4365768;32;33455;-94
2022/08/04 02:12:48;;;;;;;;;;;;;;;29.75;30.75;99246.91;4380294;32;34206;-95
2022/08/04 02:15:19;;;;;;;;;;;;;;;30.23;30.07;99242.84;4377411;32;34223;-95
2022/08/04 02:17:53;;;;;;;;;;;;;;;30.04;30.37;99239.63;4377534;32;34772;-96
2022/08/04 02:20:24;;;;;;;;;;;;;;;30.43;29.64;99238.81;4377564;32;34039;-95
2022/08/04 02:22:54;;;;;;;;;;;;;;;30.12;29.96;99234.66;4378072;32;34998;-96
2022/08/04 02:25:23;;;;;;;;;;;;;;;30.50;29.70;99248.13;4390992;32;34536;-94
2022/08/04 02:27:53;;;;;;;;;;;;;;;30.48;29.40;99242.03;4377887;32;34241;-96
2022/08/04 02:30:29;;;;;;;;;;;;;;;30.81;28.99;99239.84;4377499;32;33507;-94
2022/08/04 02:32:57;;;;;;;;;;;;;;;30.40;29.31;99239.00;4390403;32;33995;-95
2022/08/04 02:35:25;;;;;;;;;;;;;;;29.84;30.42;99238.25;4376682;32;34242;-95
2022/08/04 02:38:03;;;;;;;;;;;;;;;29.60;30.64;99232.72;4378706;32;34174;-94
2022/08/04 02:40:31;;;;;;;;;;;;;;;30.16;29.78;99235.31;4366505;32;32463;-95
2022/08/04 02:43:03;;;;;;;;;;;;;;;29.34;30.95;99237.00;4392370;32;33835;-95
2022/08/04 02:45:30;;;;;;;;;;;;;;;29.78;30.39;99236.00;4391089;32;34483;-95
2022/08/04 02:47:58;;;;;;;;;;;;;;;29.82;30.23;99237.53;4380215;32;34415;-95
2022/08/04 02:50:45;;;;;;;;;;;;;;;29.17;31.12;99239.87;4381245;32;33568;-95
2022/08/04 02:53:13;;;;;;;;;;;;;;;28.73;31.77;99236.31;4379547;32;33748;-95
2022/08/04 02:55:41;;;;;;;;;;;;;;;28.73;31.84;99240.78;4379960;32;34149;-95
2022/08/04 02:58:18;;;;;;;;;;;;;;;28.80;31.84;99236.81;4392492;32;34022;-95
2022/08/04 03:00:46;;;;;;;;;;;;;;;29.25;30.91;99233.13;4378565;32;33720;-92
2022/08/04 03:03:33;;;;;;;;;;;;;;;28.44;32.22;99227.38;4379438;32;33743;-96
2022/08/04 03:06:08;;;;;;;;;;;;;;;28.67;31.92;99234.00;4393078;32;33174;-95
2022/08/04 03:08:42;;;;;;;;;;;;;;;28.73;31.83;99232.78;4391991;32;34802;-95
2022/08/04 03:11:29;;;;;;;;;;;;;;;29.06;31.05;99237.91;4378402;32;33453;-94
2022/08/04 03:14:02;;;;;;;;;;;;;;;29.34;30.77;99229.00;4392008;32;33396;-94
2022/08/04 03:16:49;;;;;;;;;;;;;;;29.08;31.22;99239.50;4392008;32;34123;-95
2022/08/04 03:19:20;;;;;;;;;;;;;;;28.34;32.34;99243.06;4392069;32;34138;-95
2022/08/04 03:21:56;;;;;;;;;;;;;;;29.29;30.91;99239.97;4392970;32;33549;-92
2022/08/04 03:24:27;;;;;;;;;;;;;;;28.55;31.76;99237.41;4392882;32;34615;-94
2022/08/04 03:27:20;;;;;;;;;;;;;;;29.23;30.75;99239.50;4392554;32;34234;-95
2022/08/04 03:30:05;;;;;;;;;;;;;;;29.07;30.99;99228.94;4392331;32;35054;-95
2022/08/04 03:32:38;;;;;;;;;;;;;;;27.43;33.73;99241.16;4391674;32;34340;-94
2022/08/04 03:35:24;;;;;;;;;;;;;;;28.20;32.50;99237.66;4391949;32;34140;-95
2022/08/04 03:38:10;;;;;;;;;;;;;;;28.26;32.10;99241.75;4392625;32;35340;-95
2022/08/04 03:40:46;;;;;;;;;;;;;;;29.34;30.67;99239.69;4393132;32;34289;-95
2022/08/04 03:43:19;;;;;;;;;;;;;;;28.32;31.90;99241.41;4378500;32;33339;-95
2022/08/04 03:46:11;;;;;;;;;;;;;;;27.75;33.17;99246.50;4391568;32;34986;-95
2022/08/04 03:48:44;;;;;;;;;;;;;;;28.64;31.67;99242.22;4393280;32;34835;-96
2022/08/04 03:54:17;;;;;;;;;;;;;;;27.44;33.66;99250.00;4392364;32;33327;-96
2022/08/04 03:56:51;;;;;;;;;;;;;;;28.71;31.36;99237.34;4393783;32;34359;-95
2022/08/04 03:59:21;;;;;;;;;;;;;;;28.12;32.02;99243.44;4366685;32;805141;-95
2022/08/04 04:01:49;;;;;;;;;;;;;;;29.00;31.08;99252.47;4392650;32;35169;-95
2022/08/04 04:04:48;;;;;;;;;;;;;;;28.00;32.50;99249.50;4392282;32;32978;-94
2022/08/04 04:07:27;;;;;;;;;;;;;;;27.58;33.10;99261.59;4392930;32;34288;-95
2022/08/04 04:10:14;;;;;;;;;;;;;;;28.58;31.48;99247.91;4379475;32;33913;-95
2022/08/04 04:12:52;;;;;;;;;;;;;;;28.80;31.20;99255.47;4392451;32;34878;-93
2022/08/04 04:15:28;;;;;;;;;;;;;;;28.59;31.57;99250.47;4379248;32;32942;-95
2022/08/04 04:18:14;;;;;;;;;;;;;;;28.52;31.45;99254.44;4377880;32;34420;-94
2022/08/04 04:20:44;;;;;;;;;;;;;;;29.14;30.75;99258.78;4392342;32;34306;-95
2022/08/04 04:23:46;;;;;;;;;;;;;;;29.24;30.48;99249.22;4392138;32;35325;-96
2022/08/04 04:26:26;;;;;;;;;;;;;;;28.70;31.39;99256.97;4380385;32;33047;-95
2022/08/04 04:28:53;;;;;;;;;;;;;;;27.50;33.10;99262.94;4392244;32;33773;-94
2022/08/04 04:31:20;;;;;;;;;;;;;;;27.63;32.91;99259.53;4394332;32;34146;-96
2022/08/04 04:33:47;;;;;;;;;;;;;;;27.19;33.63;99258.44;4392558;32;34384;-94
2022/08/04 04:36:58;;;;;;;;;;;;;;;27.06;34.17;99267.06;4392502;32;33646;-95
2022/08/04 04:39:27;;;;;;;;;;;;;;;27.76;32.93;99261.53;4378023;32;34830;-95
2022/08/04 04:41:57;;;;;;;;;;;;;;;27.30;34.07;99269.37;4392924;32;34017;-94
2022/08/04 04:44:24;;;;;;;;;;;;;;;27.17;34.06;99272.69;4393227;32;34157;-96
2022/08/04 04:46:57;;;;;;;;;;;;;;;27.39;33.30;99271.56;4391423;32;33327;-95
2022/08/04 04:49:32;;;;;;;;;;;;;;;28.44;32.03;99270.06;4393018;32;33864;-94
2022/08/04 04:52:05;;;;;;;;;;;;;;;28.73;31.47;99267.47;4377894;32;34273;-95
2022/08/04 04:54:32;;;;;;;;;;;;;;;29.47;30.13;99272.69;4378596;32;34383;-95
2022/08/04 04:57:09;;;;;;;;;;;;;;;29.58;29.86;99266.66;4392880;32;34314;-95
2022/08/04 04:59:37;;;;;;;;;;;;;;;28.65;31.01;99270.59;4377559;32;34053;-96
2022/08/04 05:02:20;;;;;;;;;;;;;;;29.18;30.41;99276.31;4379521;32;33745;-95
2022/08/04 05:04:59;;;;;;;;;;;;;;;28.67;31.09;99268.69;4391791;32;35315;-96
2022/08/04 05:07:51;;;;;;;;;;;;;;;29.25;30.35;99275.84;4392466;32;33735;-95
2022/08/04 05:10:55;;;;;;;;;;;;;;;29.94;29.70;99278.63;4376584;32;34582;-96
2022/08/04 05:13:33;;;;;;;;;;;;;;;29.43;30.43;99276.47;4393511;32;34875;-95
2022/08/04 05:16:23;;;;;;;;;;;;;;;29.00;30.85;99281.81;4382495;32;34079;-96
2022/08/04 05:19:01;;;;;;;;;;;;;;;29.03;30.68;99278.97;4379476;32;33274;-95
2022/08/04 05:21:33;;;;;;;;;;;;;;;29.41;29.91;99289.09;4379236;32;34785;-95
2022/08/04 05:24:03;;;;;;;;;;;;;;;29.54;29.73;99292.69;4379864;32;35370;-96
2022/08/04 05:26:40;;;;;;;;;;;;;;;29.17;30.24;99285.25;4380038;32;34556;-96
2022/08/04 05:29:08;;;;;;;;;;;;;;;29.34;30.05;99296.62;4380609;32;33266;-93
2022/08/04 05:31:36;;;;;;;;;;;;;;;30.24;29.11;99287.34;4379002;32;34491;-94
2022/08/04 05:34:08;;;;;;;;;;;;;;;29.44;30.44;99296.06;4378884;32;34756;-95
2022/08/04 05:36:40;;;;;;;;;;;;;;;29.78;29.81;99289.47;4379689;32;34106;-94
2022/08/04 05:39:11;;;;;;;;;;;;;;;29.98;29.19;99296.19;4379693;32;33304;-95
2022/08/04 05:41:39;;;;;;;;;;;;;;;29.56;29.59;99293.47;4380394;32;34430;-96
2022/08/04 05:44:13;;;;;;;;;;;;;;;29.18;30.63;99295.88;4368840;32;33431;-93
2022/08/04 05:46:41;;;;;;;;;;;;;;;28.65;31.32;99297.28;4378424;32;34319;-96
2022/08/04 05:49:08;;;;;;;;;;;;;;;30.24;29.54;99302.53;4379879;32;33593;-96
2022/08/04 05:51:51;;;;;;;;;;;;;;;30.31;28.79;99301.16;4393771;32;34248;-95
2022/08/04 05:54:19;;;;;;;;;;;;;;;29.68;30.24;99304.34;4379896;32;34764;-92
2022/08/04 05:56:47;;;;;;;;;;;;;;;29.69;29.48;99308.75;4379683;32;33608;-95
2022/08/04 05:59:16;;;;;;;;;;;;;;;29.97;29.54;99306.03;4393507;32;32878;-96
2022/08/04 06:01:44;;;;;;;;;;;;;;;28.91;30.55;99300.19;4367378;32;34362;-96
2022/08/04 06:04:24;;;;;;;;;;;;;;;29.55;29.77;99299.78;4380610;32;33964;-96
2022/08/04 06:06:51;;;;;;;;;;;;;;;30.24;29.03;99305.19;4378930;32;34298;-96
2022/08/04 06:09:18;;;;;;;;;;;;;;;30.21;29.01;99310.75;4379617;32;34281;-95
2022/08/04 06:11:46;;;;;;;;;;;;;;;30.39;28.71;99304.19;4378685;32;34356;-94
2022/08/04 06:14:57;;;;;;;;;;;;;;;30.73;28.56;99304.59;4382350;32;35179;-95
2022/08/04 06:17:30;;;;;;;;;;;;;;;30.85;27.65;99297.56;4391923;32;34872;-94
2022/08/04 06:20:17;;;;;;;;;;;;;;;31.36;27.22;99298.44;4382788;32;34551;-93
2022/08/04 06:22:54;;;;;;;;;;;;;;;31.26;26.94;99308.06;4382366;32;34018;-95
2022/08/04 06:25:23;;;;;;;;;;;;;;;30.81;27.91;99304.94;4381070;32;34188;-94
2022/08/04 06:27:50;;;;;;;;;;;;;;;30.06;28.26;99305.41;4394326;32;34111;-96
2022/08/04 06:30:19;;;;;;;;;;;;;;;29.71;28.90;99296.16;4381507;32;34002;-95
2022/08/04 06:32:47;;;;;;;;;;;;;;;29.58;29.33;99302.25;4380311;32;34368;-94
2022/08/04 06:35:35;;;;;;;;;;;;;;;30.54;28.29;99300.47;4393056;32;34373;-95
2022/08/04 06:38:02;;;;;;;;;;;;;;;31.76;27.29;99300.09;4379876;32;34433;-95
2022/08/04 06:40:30;;;;;;;;;;;;;;;30.94;27.06;99304.94;4393844;32;33427;-96
2022/08/04 06:43:01;;;;;;;;;;;;;;;31.31;26.41;99305.94;4394820;32;33532;-95
2022/08/04 06:45:28;;;;;;;;;;;;;;;30.54;27.95;99305.81;4388616;32;34212;-95
2022/08/04 06:47:55;;;;;;;;;;;;;;;30.23;28.32;99308.81;4380116;32;35338;-96
2022/08/04 06:50:23;;;;;;;;;;;;;;;30.98;27.68;99299.28;4367962;32;32491;-95
2022/08/04 06:53:11;;;;;;;;;;;;;;;30.62;27.44;99302.63;4394922;32;34082;-95
2022/08/04 06:55:39;;;;;;;;;;;;;;;29.79;28.91;99309.88;4382523;32;34911;-94
2022/08/04 06:58:16;;;;;;;;;;;;;;;29.72;29.23;99311.22;4382414;32;35320;-96
2022/08/04 07:00:43;;;;;;;;;;;;;;;30.23;28.25;99307.03;4394426;32;33333;-96
2022/08/04 07:03:11;;;;;;;;;;;;;;;30.98;27.76;99291.22;4381022;32;34007;-92
2022/08/04 07:05:39;;;;;;;;;;;;;;;30.85;27.73;99295.75;4379418;32;33922;-94
2022/08/04 07:08:08;;;;;;;;;;;;;;;32.25;26.47;99302.72;4378861;32;33136;-96
2022/08/04 07:10:35;;;;;;;;;;;;;;;32.31;26.38;99307.63;4380796;32;33695;-95
2022/08/04 07:13:03;;;;;;;;;;;;;;;32.49;25.73;99300.06;4381378;32;33377;-95
2022/08/04 07:15:31;;;;;;;;;;;;;;;32.03;27.25;99307.97;4378881;32;33985;-94
2022/08/04 07:18:02;;;;;;;;;;;;;;;32.91;25.59;99297.72;4368416;32;34260;-94
2022/08/04 07:20:29;;;;;;;;;;;;;;;32.42;25.32;99304.16;4394197;32;33634;-96
2022/08/04 07:23:03;;;;;;;;;;;;;;;32.86;25.49;99294.56;4394598;32;34134;-96
2022/08/04 07:25:32;;;;;;;;;;;;;;;32.25;26.15;99309.94;4394456;32;34271;-94
2022/08/04 07:28:20;;;;;;;;;;;;;;;31.97;26.38;99310.16;4393656;32;34161;-93
2022/08/04 07:30:48;;;;;;;;;;;;;;;32.78;25.80;99305.88;4392749;32;33025;-94
2022/08/04 07:33:16;;;;;;;;;;;;;;;32.08;25.90;99300.44;4393209;32;34356;-93
2022/08/04 07:35:49;;;;;;;;;;;;;;;33.41;25.38;99299.19;4392459;32;33945;-95
2022/08/04 07:38:40;;;;;;;;;;;;;;;33.87;24.39;99294.63;4379292;32;34508;-94
2022/08/04 07:41:22;;;;;;;;;;;;;;;34.19;24.14;99288.47;4378868;32;33512;-96
2022/08/04 07:44:06;;;;;;;;;;;;;;;35.24;23.17;99290.25;4393147;32;34260;-93
2022/08/04 07:46:37;;;;;;;;;;;;;;;33.71;23.72;99300.37;4392548;32;34215;-95
2022/08/04 07:49:05;;;;;;;;;;;;;;;34.68;23.47;99290.59;4392052;32;34718;-93
2022/08/04 07:51:34;;;;;;;;;;;;;;;34.80;22.93;99284.16;4392286;32;33628;-93
2022/08/04 07:54:03;;;;;;;;;;;;;;;34.68;22.19;99281.66;4365849;32;33362;-93
2022/08/04 07:56:32;;;;;;;;;;;;;;;35.24;21.95;99276.78;4381280;32;35058;-92
2022/08/04 07:59:00;;;;;;;;;;;;;;;33.49;23.59;99278.91;4380320;32;34492;-94
2022/08/04 08:01:28;;;;;;;;;;;;;;;32.94;23.61;99279.59;4393699;32;34610;-94
2022/08/04 08:03:56;;;;;;;;;;;;;;;32.72;24.05;99290.25;4368655;32;33890;-95
2022/08/04 08:06:23;;;;;;;;;;;;;;;33.11;23.57;99289.03;4378758;32;33890;-94
2022/08/04 08:09:01;;;;;;;;;;;;;;;33.09;24.21;99287.41;4379584;32;34297;-93
2022/08/04 08:11:40;;;;;;;;;;;;;;;34.21;23.08;99290.06;4380062;32;34320;-94
2022/08/04 08:14:29;;;;;;;;;;;;;;;34.25;22.38;99278.03;4392342;32;34295;-92
2022/08/04 08:16:57;;;;;;;;;;;;;;;34.24;22.70;99279.00;4379707;32;34365;-93
2022/08/04 08:19:24;;;;;;;;;;;;;;;33.95;23.04;99283.25;4377822;32;34257;-94
2022/08/04 08:21:52;;;;;;;;;;;;;;;34.82;23.01;99284.03;4391430;32;33048;-93
2022/08/04 08:24:29;;;;;;;;;;;;;;;34.69;22.50;99280.66;4391495;32;33509;-94
2022/08/04 08:26:58;;;;;;;;;;;;;;;34.93;21.69;99286.66;4391901;32;35414;-94
2022/08/04 08:29:26;;;;;;;;;;;;;;;34.70;22.27;99288.62;4392286;32;34618;-92
2022/08/04 08:31:53;;;;;;;;;;;;;;;34.20;23.05;99284.78;4379573;32;33835;-95
2022/08/04 08:34:25;;;;;;;;;;;;;;;32.57;24.88;99294.09;4391325;32;34242;-95
2022/08/04 08:36:57;;;;;;;;;;;;;;;33.14;24.33;99295.97;4378265;32;35253;-94
2022/08/04 08:39:34;;;;;;;;;;;;;;;34.23;23.31;99289.91;4378078;32;34428;-93
2022/08/04 08:42:20;;;;;;;;;;;;;;;34.44;22.74;99287.25;4392029;32;34478;-90
2022/08/04 08:45:08;;;;;;;;;;;;;;;33.56;23.14;99297.09;4391253;32;34588;-92
2022/08/04 08:48:12;;;;;;;;;;;;;;;34.68;22.81;99293.28;4386950;32;35103;-92
2022/08/04 08:50:40;;;;;;;;;;;;;;;33.65;22.57;99298.22;4344420;33;33951;-93
2022/08/04 08:53:22;;;;;;;;;;;;;;;34.12;23.02;99288.09;4377114;32;33886;-94
2022/08/04 08:56:05;;;;;;;;;;;;;;;34.51;22.25;99292.03;4391770;32;34298;-96
2022/08/04 08:58:50;;;;;;;;;;;;;;;34.22;23.01;99291.75;4389830;32;35160;-94
2022/08/04 09:01:38;;;;;;;;;;;;;;;34.66;22.14;99287.16;4391019;32;33839;-95
2022/08/04 09:04:27;;;;;;;;;;;;;;;34.34;21.98;99290.72;4390226;32;32478;-94
2022/08/04 09:07:02;;;;;;;;;;;;;;;34.26;22.14;99295.91;4391041;32;34282;-92
2022/08/04 09:09:51;;;;;;;;;;;;;;;35.15;21.78;99290.19;4365179;32;33735;-94
2022/08/04 09:12:37;;;;;;;;;;;;;;;35.24;20.91;99292.09;4391836;32;34119;-93
2022/08/04 09:15:04;;;;;;;;;;;;;;;34.34;22.26;99285.34;4391898;32;33361;-92
2022/08/04 09:17:34;;;;;;;;;;;;;;;34.09;22.42;99289.22;4392233;32;33789;-94
2022/08/04 09:20:04;;;;;;;;;;;;;;;32.97;23.70;99291.94;4391900;32;34083;-95
2022/08/04 09:22:53;;;;;;;;;;;;;;;34.19;22.82;99286.63;4378535;32;34283;-93
2022/08/04 09:25:27;;;;;;;;;;;;;;;34.67;22.14;99279.97;4394029;32;33491;-95
2022/08/04 09:27:55;;;;;;;;;;;;;;;33.43;23.94;99291.81;4380921;32;35008;-94
2022/08/04 09:30:32;;;;;;;;;;;;;;;34.08;22.83;99283.97;4377223;32;34580;-93
2022/08/04 09:33:18;;;;;;;;;;;;;;;34.94;22.19;99288.34;4392352;32;34305;-96
2022/08/04 09:36:07;;;;;;;;;;;;;;;34.02;22.44;99284.47;4392577;32;34206;-95
2022/08/04 09:38:34;;;;;;;;;;;;;;;34.87;22.41;99279.09;4377289;32;34422;-92
2022/08/04 09:41:05;;;;;;;;;;;;;;;35.56;20.91;99282.03;4390980;32;35096;-93
2022/08/04 09:43:59;;;;;;;;;;;;;;;36.17;20.07;99278.34;4378357;32;33294;-94
2022/08/04 09:46:50;;;;;;;;;;;;;;;35.65;20.44;99279.50;4380720;32;34033;-93
2022/08/04 09:49:19;;;;;;;;;;;;;;;35.53;20.76;99276.91;4377710;32;33195;-95
2022/08/04 09:51:52;;;;;;;;;;;;;;;35.62;20.63;99269.00;4378282;32;34311;-94
2022/08/04 09:54:26;;;;;;;;;;;;;;;35.71;20.46;99274.41;4390639;32;35380;-94
2022/08/04 09:57:03;;;;;;;;;;;;;;;36.44;20.01;99266.84;4390255;32;33432;-92
2022/08/04 09:59:50;;;;;;;;;;;;;;;36.41;21.64;99258.22;4376808;32;34988;-92
2022/08/04 10:02:17;;;;;;;;;;;;;;;36.45;20.60;99259.63;4391489;32;34088;-93
2022/08/04 10:04:45;;;;;;;;;;;;;;;34.94;21.81;99255.19;4377481;32;34521;-95
2022/08/04 10:07:12;;;;;;;;;;;;;;;34.51;22.72;99256.16;4390418;32;33773;-94
2022/08/04 10:09:39;;;;;;;;;;;;;;;35.57;21.59;99258.62;4390707;32;35019;-93
2022/08/04 10:12:16;;;;;;;;;;;;;;;35.66;21.06;99248.88;4391839;32;34077;-92
2022/08/04 10:14:47;;;;;;;;;;;;;;;35.19;20.73;99252.06;4391623;32;35074;-96
2022/08/04 10:17:33;;;;;;;;;;;;;;;35.64;20.95;99246.28;4377939;32;34197;-93
2022/08/04 10:20:09;;;;;;;;;;;;;;;35.38;21.03;99245.87;4391005;32;34658;-94
2022/08/04 10:22:38;;;;;;;;;;;;;;;35.44;20.88;99250.75;4392342;32;34308;-94
2022/08/04 10:25:25;;;;;;;;;;;;;;;35.11;21.11;99249.19;4381329;32;35009;-95
2022/08/04 10:28:15;;;;;;;;;;;;;;;34.66;21.28;99243.22;4391966;32;33308;-96
2022/08/04 10:30:46;;;;;;;;;;;;;;;36.11;20.21;99237.59;4377549;32;33305;-94
2022/08/04 10:33:19;;;;;;;;;;;;;;;35.54;21.09;99245.44;4390314;32;35205;-94
2022/08/04 10:35:50;;;;;;;;;;;;;;;36.22;20.49;99238.31;4390353;32;33832;-90
2022/08/04 10:38:26;;;;;;;;;;;;;;;36.83;19.51;99229.03;4376134;32;34192;-93
2022/08/04 10:40:59;;;;;;;;;;;;;;;37.21;19.47;99238.03;4376394;32;34071;-93
2022/08/04 10:43:34;;;;;;;;;;;;;;;37.20;19.41;99237.19;4390218;32;34850;-91
2022/08/04 10:46:01;;;;;;;;;;;;;;;36.32;20.40;99234.75;4391132;32;34485;-94
2022/08/04 10:48:28;;;;;;;;;;;;;;;36.47;20.18;99219.84;4392035;32;33635;-95
2022/08/04 10:51:03;;;;;;;;;;;;;;;36.13;20.34;99225.66;4391312;32;33968;-94
2022/08/04 10:53:31;;;;;;;;;;;;;;;36.53;20.10;99217.41;4376620;32;35068;-94
2022/08/04 10:56:01;;;;;;;;;;;;;;;37.10;19.53;99214.72;4376636;32;34482;-94
2022/08/04 10:58:37;;;;;;;;;;;;;;;37.03;19.70;99218.19;4391361;32;33974;-93
2022/08/04 11:01:16;;;;;;;;;;;;;;;37.68;19.75;99219.84;4379638;32;34952;-93
2022/08/04 11:04:04;;;;;;;;;;;;;;;37.70;18.80;99217.84;4381183;32;35175;-91
2022/08/04 11:06:33;;;;;;;;;;;;;;;38.00;18.47;99210.41;4378294;32;33608;-93
2022/08/04 11:09:00;;;;;;;;;;;;;;;38.12;18.88;99201.03;4366473;32;32928;-94
2022/08/04 11:12:00;;;;;;;;;;;;;;;37.73;18.29;99204.03;4392729;32;35142;-93
2022/08/04 11:14:48;;;;;;;;;;;;;;;37.33;19.11;99208.94;4363890;32;34444;-93
2022/08/04 11:17:28;;;;;;;;;;;;;;;37.04;18.95;99209.91;4370378;32;34233;-96
2022/08/04 11:20:16;;;;;;;;;;;;;;;36.49;19.35;99204.38;4379182;32;33800;-93
2022/08/04 11:23:09;;;;;;;;;;;;;;;36.29;19.96;99215.16;4390157;32;33932;-95
2022/08/04 11:25:51;;;;;;;;;;;;;;;36.25;19.65;99215.56;4378673;32;34030;-93
2022/08/04 11:28:45;;;;;;;;;;;;;;;36.54;19.34;99204.75;4392861;32;34344;-96
2022/08/04 11:31:15;;;;;;;;;;;;;;;36.41;19.46;99201.50;4387647;32;34290;-92
2022/08/04 11:33:51;;;;;;;;;;;;;;;36.56;19.34;99194.69;4392696;32;33521;-95
2022/08/04 11:36:21;;;;;;;;;;;;;;;36.64;19.62;99194.81;4392637;32;34420;-94
2022/08/04 11:38:52;;;;;;;;;;;;;;;35.83;20.10;99196.91;4393180;32;33911;-92
2022/08/04 11:41:43;;;;;;;;;;;;;;;36.14;19.76;99189.59;4378690;32;33449;-94
2022/08/04 11:44:15;;;;;;;;;;;;;;;36.50;19.33;99189.84;4369985;32;34272;-94
2022/08/04 11:46:43;;;;;;;;;;;;;;;36.96;18.92;99190.88;4378193;32;34092;-96
2022/08/04 11:49:13;;;;;;;;;;;;;;;36.54;19.27;99184.00;4378507;32;34665;-95
2022/08/04 11:51:41;;;;;;;;;;;;;;;36.98;19.57;99183.50;4366751;32;32854;-93
2022/08/04 11:54:10;;;;;;;;;;;;;;;36.85;18.77;99180.22;4379169;32;33822;-94
2022/08/04 11:56:37;;;;;;;;;;;;;;;37.12;18.31;99168.63;4379158;32;33428;-93
2022/08/04 11:59:08;;;;;;;;;;;;;;;37.02;17.96;99171.38;4377620;32;35253;-94
2022/08/04 12:01:41;;;;;;;;;;;;;;;37.87;17.40;99166.59;4380188;32;34342;-95
2022/08/04 12:04:13;;;;;;;;;;;;;;;37.75;18.06;99171.41;4393236;32;34676;-94
2022/08/04 12:06:57;;;;;;;;;;;;;;;38.10;17.39;99167.84;4392360;32;34069;-95
2022/08/04 12:09:54;;;;;;;;;;;;;;;37.82;17.43;99163.53;4379730;32;33972;-95
2022/08/04 12:12:26;;;;;;;;;;;;;;;38.83;16.88;99162.16;4392963;32;33155;-94
2022/08/04 12:15:12;;;;;;;;;;;;;;;38.84;17.79;99165.72;4391736;32;34216;-92
2022/08/04 12:17:44;;;;;;;;;;;;;;;38.04;17.98;99154.97;4393141;32;34196;-94
2022/08/04 12:20:21;;;;;;;;;;;;;;;38.30;17.54;99138.75;4393030;32;34490;-95
2022/08/04 12:23:13;;;;;;;;;;;;;;;39.06;16.81;99148.00;4369912;32;34228;-94
2022/08/04 12:25:43;;;;;;;;;;;;;;;38.89;16.39;99147.09;4378553;32;34096;-92
2022/08/04 12:28:12;;;;;;;;;;;;;;;38.07;17.96;99149.22;4392115;32;33982;-94
2022/08/04 12:30:42;;;;;;;;;;;;;;;38.30;17.57;99151.41;4391898;32;34503;-95
2022/08/04 12:33:34;;;;;;;;;;;;;;;37.61;18.10;99145.72;4380422;32;33942;-95
2022/08/04 12:36:41;;;;;;;;;;;;;;;38.59;16.99;99143.84;4380876;32;34055;-95
2022/08/04 12:39:14;;;;;;;;;;;;;;;38.74;17.01;99145.97;4391038;32;35197;-96
2022/08/04 12:41:53;;;;;;;;;;;;;;;38.76;17.22;99144.81;4378134;32;34338;-94
2022/08/04 12:44:21;;;;;;;;;;;;;;;39.27;16.38;99134.91;4378971;32;34457;-93
2022/08/04 12:47:08;;;;;;;;;;;;;;;38.44;17.09;99134.63;4367152;32;32703;-94
2022/08/04 12:49:57;;;;;;;;;;;;;;;38.93;17.01;99134.91;4391907;32;35137;-94
2022/08/04 12:52:30;;;;;;;;;;;;;;;38.66;17.67;99128.66;4379436;32;34459;-95
2022/08/04 12:55:19;;;;;;;;;;;;;;;38.85;16.92;99127.59;4392313;32;33228;-93
2022/08/04 12:57:46;;;;;;;;;;;;;;;38.84;16.77;99125.91;4392038;32;34235;-96
2022/08/04 13:00:34;;;;;;;;;;;;;;;38.89;16.27;99128.12;4379333;32;35310;-95
2022/08/04 13:03:11;;;;;;;;;;;;;;;39.20;16.99;99124.84;4392541;32;34350;-94
2022/08/04 13:05:40;;;;;;;;;;;;;;;39.17;16.06;99121.47;4379473;32;33442;-95
2022/08/04 13:08:09;;;;;;;;;;;;;;;38.65;16.70;99128.84;4392802;32;35038;-94
2022/08/04 13:10:38;;;;;;;;;;;;;;;39.08;16.09;99118.88;4379282;32;34011;-94
2022/08/04 13:13:11;;;;;;;;;;;;;;;38.68;16.68;99125.78;4379507;32;33464;-95
2022/08/04 13:15:57;;;;;;;;;;;;;;;38.70;16.47;99115.66;4380970;32;33722;-96
2022/08/04 13:18:25;;;;;;;;;;;;;;;38.60;16.62;99123.03;4379543;32;33183;-96
2022/08/04 13:21:10;;;;;;;;;;;;;;;38.28;16.48;99120.94;4377123;32;33212;-93
2022/08/04 13:23:51;;;;;;;;;;;;;;;38.44;16.34;99115.66;4380903;32;35254;-92
2022/08/04 13:26:56;;;;;;;;;;;;;;;38.24;16.92;99108.75;4392898;32;33616;-94
2022/08/04 13:29:30;;;;;;;;;;;;;;;38.62;16.31;99110.19;4380476;32;34406;-94
2022/08/04 13:32:21;;;;;;;;;;;;;;;38.84;16.65;99097.97;4382885;32;34302;-94
2022/08/04 13:34:49;;;;;;;;;;;;;;;39.23;16.03;99100.13;4378438;32;34128;-95
2022/08/04 13:37:24;;;;;;;;;;;;;;;38.16;16.82;99101.41;4380003;32;33327;-96